YEB weather

Bar River Airport
Bar River, Ontario, Canada

Public forecast

Using degrees Celsius for public forecast. Weather courtesy of forecast.io.

METAR (pilot weather report)

Closest report is Sault Ste Marie Municipal Sanderson Field, 12.0 nm (22.2 km) WNW. Retrieved 2019/05/21 09:55 UTC (46 minutes ago):

KANJ 210955Z AUTO 29005KT 10SM CLR 04/01 A3016 RMK AO2 SLP217 T00390011

TAF (pilot weather forecast)

Closest forecast is Sault Ste Marie Airport, 17.7 nm (32.8 km) WNW. Retrieved 2019/05/21 08:42 UTC (2 hours ago):

TAF CYAM 210738Z 2108/2120 30008KT P6SM SKC RMK NXT FCST BY 211400Z